Time;durP1;ratioP1;P1;durP2;ratioP2;P2;SDS_P1;SDS_P2;PMS_P1;PMS_P2;Temp;Humidity;BMP_temperature;BMP_pressure;BME280_temperature;BME280_humidity;BME280_pressure;Samples;Min_cycle;Max_cycle;Signal;HPM_P1;HPM_P2
2022/11/10 00:00:21;;;;;;;58.13;45.97;;;14.00;99.90;;;;;;5030425;28;20101;-66
2022/11/10 00:02:47;;;;;;;59.15;48.80;;;14.10;99.90;;;;;;5030302;28;20168;-66
2022/11/10 00:05:14;;;;;;;66.13;48.67;;;14.10;99.90;;;;;;5030648;28;20068;-66
2022/11/10 00:07:40;;;;;;;65.30;49.78;;;13.70;99.90;;;;;;5029881;28;20375;-66
2022/11/10 00:10:07;;;;;;;46.55;40.15;;;13.80;99.90;;;;;;5032221;28;20033;-66
2022/11/10 00:12:33;;;;;;;50.38;43.08;;;13.80;99.90;;;;;;5030683;28;20161;-66
2022/11/10 00:17:44;;;;;;;49.75;41.85;;;13.80;99.90;;;;;;5031741;28;20124;-66
2022/11/10 00:20:11;;;;;;;48.75;42.25;;;13.90;99.90;;;;;;5029502;28;20332;-67
2022/11/10 00:22:38;;;;;;;45.53;39.70;;;13.80;99.90;;;;;;5029972;28;20049;-66
2022/11/10 00:25:05;;;;;;;41.85;37.38;;;13.70;99.90;;;;;;5030784;28;20021;-67
2022/11/10 00:27:32;;;;;;;46.80;39.45;;;13.40;99.90;;;;;;5027531;28;20438;-66
2022/11/10 00:29:57;;;;;;;62.95;44.25;;;13.70;99.90;;;;;;5029255;28;20041;-66
2022/11/10 00:32:23;;;;;;;55.70;44.28;;;13.90;99.90;;;;;;5030907;28;20068;-67
2022/11/10 00:34:49;;;;;;;40.45;36.10;;;13.80;99.90;;;;;;5029509;28;20025;-66
2022/11/10 00:37:15;;;;;;;59.95;44.97;;;13.60;99.90;;;;;;5029324;28;20061;-66
2022/11/10 00:39:40;;;;;;;52.17;41.83;;;13.80;99.90;;;;;;5029353;28;20021;-66
2022/11/10 00:42:06;;;;;;;33.88;30.27;;;13.80;99.90;;;;;;5028895;28;20133;-66
2022/11/10 00:44:32;;;;;;;43.28;36.60;;;13.60;99.90;;;;;;5028637;28;20021;-66
2022/11/10 00:46:58;;;;;;;40.38;33.78;;;13.60;99.90;;;;;;5030780;28;20091;-66
2022/11/10 00:49:23;;;;;;;35.28;31.50;;;13.60;99.90;;;;;;5030517;28;20032;-66
2022/11/10 00:51:49;;;;;;;61.22;42.08;;;13.50;99.90;;;;;;5028959;28;20113;-66
2022/11/10 00:54:15;;;;;;;38.53;32.60;;;13.60;99.90;;;;;;5029644;28;20128;-65
2022/11/10 00:56:40;;;;;;;50.67;39.15;;;13.50;99.90;;;;;;5034645;28;20542;-65
2022/11/10 00:59:06;;;;;;;43.65;35.22;;;13.60;99.90;;;;;;5033538;28;20048;-65
2022/11/10 01:01:32;;;;;;;57.78;42.90;;;13.50;99.90;;;;;;5033074;28;20148;-65
2022/11/10 01:03:57;;;;;;;47.08;36.60;;;13.50;99.90;;;;;;5041242;28;20025;-65
2022/11/10 01:06:23;;;;;;;31.50;27.75;;;13.70;99.90;;;;;;5042207;28;20478;-65
2022/11/10 01:08:48;;;;;;;38.58;31.15;;;13.40;99.90;;;;;;5050992;28;20041;-65
2022/11/10 01:11:17;;;;;;;32.88;29.35;;;13.50;99.90;;;;;;5044421;28;20032;-66
2022/11/10 01:13:43;;;;;;;36.53;30.33;;;13.20;99.90;;;;;;5048383;28;20033;-66
2022/11/10 01:16:15;;;;;;;41.17;34.17;;;13.40;99.90;;;;;;5029172;28;20030;-66
2022/11/10 01:18:41;;;;;;;30.77;27.48;;;13.50;99.90;;;;;;5033717;28;20443;-66
2022/11/10 01:21:07;;;;;;;34.83;30.33;;;13.50;99.90;;;;;;5038798;28;20038;-66
2022/11/10 01:23:33;;;;;;;35.70;31.35;;;13.40;99.90;;;;;;5031854;28;20029;-65
2022/11/10 01:26:01;;;;;;;32.03;28.63;;;13.10;99.90;;;;;;5031950;28;20029;-65
2022/11/10 01:28:27;;;;;;;33.28;29.35;;;13.20;99.90;;;;;;5047825;28;20041;-65
2022/11/10 01:31:07;;;;;;;30.80;27.42;;;13.20;99.90;;;;;;5031807;28;20474;-65
2022/11/10 01:33:33;;;;;;;28.13;25.27;;;13.20;99.90;;;;;;5032879;28;20041;-65
2022/11/10 01:35:59;;;;;;;37.30;31.67;;;13.20;99.90;;;;;;5033733;28;20049;-65
2022/11/10 01:38:32;;;;;;;38.78;32.47;;;13.50;99.90;;;;;;5032974;28;20061;-65
2022/11/10 01:40:58;;;;;;;30.98;27.67;;;13.50;99.90;;;;;;5031743;28;20491;-65
2022/11/10 01:43:24;;;;;;;29.77;26.67;;;13.30;99.90;;;;;;5064612;28;20083;-65
2022/11/10 01:46:04;;;;;;;34.88;30.70;;;13.50;99.90;;;;;;5019911;28;20088;-65
2022/11/10 01:48:46;;;;;;;36.47;31.27;;;13.40;99.90;;;;;;5033430;28;20096;-65
2022/11/10 01:51:19;;;;;;;35.90;32.05;;;13.50;99.90;;;;;;5027757;28;20032;-65
2022/11/10 01:53:50;;;;;;;31.33;28.13;;;13.50;99.90;;;;;;5028357;28;20092;-65
2022/11/10 01:56:16;;;;;;;40.97;32.72;;;13.10;99.90;;;;;;5033328;28;20378;-65
2022/11/10 01:58:51;;;;;;;38.10;31.48;;;13.40;99.90;;;;;;5032429;28;20140;-66
2022/11/10 02:01:17;;;;;;;40.55;32.95;;;13.20;99.90;;;;;;5025700;28;20120;-66
2022/11/10 02:03:56;;;;;;;34.58;29.20;;;13.30;99.90;;;;;;5032376;28;20112;-67
2022/11/10 02:06:25;;;;;;;41.35;33.92;;;13.00;99.90;;;;;;5030790;28;20427;-67
2022/11/10 02:08:52;;;;;;;47.25;35.30;;;13.20;99.90;;;;;;5031994;28;20049;-67
2022/11/10 02:11:18;;;;;;;35.58;29.48;;;13.10;99.90;;;;;;5032102;28;20036;-67
2022/11/10 02:13:44;;;;;;;36.30;30.27;;;12.80;99.90;;;;;;5027780;28;20087;-67
2022/11/10 02:16:10;;;;;;;40.92;34.00;;;13.10;99.90;;;;;;5032560;28;20029;-67
2022/11/10 02:18:37;;;;;;;49.88;37.05;;;13.20;99.90;;;;;;5032820;28;20084;-67
2022/11/10 02:21:04;;;;;;;44.92;33.30;;;13.20;99.90;;;;;;5031289;28;20045;-67
2022/11/10 02:23:30;;;;;;;38.92;30.95;;;13.20;99.90;;;;;;5031731;28;20438;-67
2022/11/10 02:25:57;;;;;;;41.25;31.20;;;13.30;99.90;;;;;;5031420;28;20065;-67
2022/11/10 02:28:24;;;;;;;37.45;29.95;;;13.40;99.90;;;;;;5030973;28;20445;-67
2022/11/10 02:30:50;;;;;;;37.40;28.52;;;13.10;99.90;;;;;;5032112;28;20124;-67
2022/11/10 02:33:16;;;;;;;40.38;30.23;;;13.10;99.90;;;;;;5031043;28;20051;-67
2022/11/10 02:35:43;;;;;;;36.35;28.38;;;13.00;99.90;;;;;;5032543;28;20425;-67
2022/11/10 02:38:09;;;;;;;32.13;27.33;;;13.00;99.90;;;;;;5032958;28;20336;-67
2022/11/10 02:40:35;;;;;;;39.38;29.75;;;13.20;99.90;;;;;;5030715;28;20017;-67
2022/11/10 02:43:01;;;;;;;43.33;30.02;;;13.10;99.90;;;;;;5032177;28;20034;-67
2022/11/10 02:45:26;;;;;;;36.03;28.27;;;13.30;99.90;;;;;;5031289;28;20022;-67
2022/11/10 02:47:52;;;;;;;42.38;31.13;;;13.30;99.90;;;;;;5032410;28;20053;-67
2022/11/10 02:50:18;;;;;;;33.80;28.02;;;13.30;99.90;;;;;;5031845;28;20104;-67
2022/11/10 02:52:43;;;;;;;30.67;25.15;;;13.10;99.90;;;;;;5032691;28;20420;-67
2022/11/10 02:55:09;;;;;;;35.75;27.52;;;13.30;99.90;;;;;;5031302;28;20080;-67
2022/11/10 02:57:34;;;;;;;37.83;29.15;;;13.30;99.90;;;;;;5029983;28;20064;-67
2022/11/10 03:00:00;;;;;;;34.20;27.67;;;13.20;99.90;;;;;;5031999;28;20156;-67
2022/11/10 03:02:26;;;;;;;28.95;25.40;;;13.30;99.90;;;;;;5030301;28;20052;-67
2022/11/10 03:04:51;;;;;;;38.10;28.52;;;13.30;99.90;;;;;;5029647;28;20116;-67
2022/11/10 03:07:17;;;;;;;44.50;30.77;;;13.30;99.90;;;;;;5032347;28;20025;-67
2022/11/10 03:09:42;;;;;;;48.78;33.88;;;13.50;99.90;;;;;;5031404;28;20029;-67
2022/11/10 03:12:08;;;;;;;36.42;28.98;;;13.40;99.90;;;;;;5031654;28;20029;-67
2022/11/10 03:14:33;;;;;;;43.45;32.05;;;13.40;99.90;;;;;;5028931;28;20025;-67
2022/11/10 03:16:59;;;;;;;40.55;31.55;;;13.60;99.90;;;;;;5031770;28;20479;-67
2022/11/10 03:19:24;;;;;;;45.33;34.17;;;13.60;99.90;;;;;;5027637;28;20026;-67
2022/11/10 03:21:50;;;;;;;40.42;31.25;;;13.60;99.90;;;;;;5024912;28;20033;-67
2022/11/10 03:24:16;;;;;;;46.47;33.28;;;13.50;99.90;;;;;;5029725;28;20025;-67
2022/11/10 03:26:41;;;;;;;40.72;30.45;;;13.50;99.90;;;;;;5031955;28;20017;-67
2022/11/10 03:29:07;;;;;;;37.22;30.40;;;13.70;99.90;;;;;;5031582;28;20033;-67
2022/11/10 03:31:32;;;;;;;40.47;31.20;;;13.60;99.90;;;;;;5029245;28;20483;-67
2022/11/10 03:33:58;;;;;;;41.35;32.03;;;13.60;99.90;;;;;;5030412;28;20379;-66
2022/11/10 03:36:24;;;;;;;45.17;33.00;;;13.60;99.90;;;;;;5031484;28;20033;-66
2022/11/10 03:38:49;;;;;;;40.00;29.95;;;13.60;99.90;;;;;;5029446;28;20051;-66
2022/11/10 03:41:15;;;;;;;47.17;33.72;;;13.60;99.90;;;;;;5030283;28;20030;-66
2022/11/10 03:43:40;;;;;;;31.38;26.30;;;13.60;99.90;;;;;;5029628;28;20034;-66
2022/11/10 03:46:07;;;;;;;44.75;33.20;;;13.40;99.90;;;;;;5030380;28;20036;-66
2022/11/10 03:48:33;;;;;;;46.90;33.80;;;13.70;99.90;;;;;;5031141;28;20057;-66
2022/11/10 03:50:58;;;;;;;41.80;33.05;;;13.40;99.90;;;;;;5030933;28;20422;-66
2022/11/10 03:53:24;;;;;;;42.45;32.17;;;13.60;99.90;;;;;;5031963;28;20383;-66
2022/11/10 03:55:49;;;;;;;40.97;32.53;;;13.60;99.90;;;;;;5029853;28;20029;-66
2022/11/10 03:58:15;;;;;;;53.80;38.00;;;13.50;99.90;;;;;;5030219;28;20033;-66
2022/11/10 04:00:41;;;;;;;47.67;35.78;;;13.70;99.90;;;;;;5028437;28;20030;-66
2022/11/10 04:03:06;;;;;;;50.22;37.08;;;13.70;99.90;;;;;;5027822;28;20040;-66
2022/11/10 04:11:01;;;;;;;42.97;33.30;;;13.70;99.90;;;;;;5047101;28;20283;-66
2022/11/10 04:16:11;;;;;;;50.23;36.57;;;13.60;99.90;;;;;;5033975;28;20048;-66
2022/11/10 04:18:37;;;;;;;52.13;38.45;;;13.70;99.90;;;;;;5030501;28;20463;-65
2022/11/10 04:21:03;;;;;;;63.42;43.25;;;13.60;99.90;;;;;;5030070;28;20021;-66
2022/11/10 04:23:34;;;;;;;59.72;41.85;;;13.60;99.90;;;;;;5030835;28;20029;-66
2022/11/10 04:26:28;;;;;;;60.95;43.45;;;13.70;99.90;;;;;;5036107;28;20017;-66
2022/11/10 04:28:55;;;;;;;58.65;41.47;;;13.60;99.90;;;;;;5030844;28;20091;-65
2022/11/10 04:31:23;;;;;;;69.13;45.85;;;13.70;99.90;;;;;;5032772;28;20033;-66
2022/11/10 04:33:50;;;;;;;68.10;45.55;;;13.70;99.90;;;;;;5033647;28;20036;-65
2022/11/10 04:36:18;;;;;;;61.58;43.30;;;13.80;99.90;;;;;;5053617;28;20471;-66
2022/11/10 04:38:44;;;;;;;57.42;40.75;;;13.70;99.90;;;;;;5034804;28;20057;-66
2022/11/10 04:41:11;;;;;;;59.75;42.83;;;13.70;99.90;;;;;;5034087;28;20115;-66
2022/11/10 04:43:37;;;;;;;68.25;44.58;;;13.70;99.90;;;;;;5042080;28;20024;-66
2022/11/10 04:46:04;;;;;;;66.72;44.72;;;13.70;99.90;;;;;;5029215;28;20394;-66
2022/11/10 04:48:30;;;;;;;56.65;41.72;;;13.60;99.90;;;;;;5032320;28;20451;-66
2022/11/10 04:50:57;;;;;;;57.53;42.40;;;13.70;99.90;;;;;;5032803;28;20025;-66
2022/11/10 04:53:24;;;;;;;59.20;41.42;;;13.80;99.90;;;;;;5034156;28;20026;-66
2022/11/10 04:55:50;;;;;;;57.17;40.00;;;13.60;99.90;;;;;;5033022;28;20037;-66
2022/11/10 04:58:15;;;;;;;66.97;45.15;;;13.60;99.90;;;;;;5033970;28;20210;-66
2022/11/10 05:00:41;;;;;;;58.80;42.30;;;13.60;99.90;;;;;;5033306;28;20024;-65
2022/11/10 05:03:09;;;;;;;66.90;45.38;;;13.70;99.90;;;;;;5031604;28;20032;-65
2022/11/10 05:05:35;;;;;;;57.90;40.53;;;13.70;99.90;;;;;;5031161;28;20030;-66
2022/11/10 05:08:02;;;;;;;60.72;41.83;;;13.70;99.90;;;;;;5034998;28;20041;-66
2022/11/10 05:10:27;;;;;;;59.53;41.88;;;13.60;99.90;;;;;;5033764;28;20021;-66
2022/11/10 05:12:56;;;;;;;64.93;44.15;;;13.80;99.90;;;;;;5035116;28;20030;-66
2022/11/10 05:15:22;;;;;;;59.95;40.22;;;13.80;99.90;;;;;;5031982;28;20434;-66
2022/11/10 05:17:53;;;;;;;70.22;45.08;;;13.60;99.90;;;;;;5044029;28;20107;-65
2022/11/10 05:20:23;;;;;;;58.40;42.25;;;13.70;99.90;;;;;;5032645;28;20140;-65
2022/11/10 05:25:39;;;;;;;61.65;43.63;;;13.80;99.90;;;;;;5034465;28;20140;-65
2022/11/10 05:28:07;;;;;;;64.13;45.25;;;13.70;99.90;;;;;;5032451;28;20530;-66
2022/11/10 05:37:16;;;;;;;73.50;47.88;;;13.50;99.90;;;;;;5022543;28;20037;-65
2022/11/10 05:39:42;;;;;;;74.95;48.67;;;13.60;99.90;;;;;;5029695;28;20025;-65
2022/11/10 05:42:07;;;;;;;72.00;46.38;;;13.70;99.90;;;;;;5031756;28;20065;-65
2022/11/10 05:44:33;;;;;;;70.72;47.15;;;13.50;99.90;;;;;;5033059;28;20324;-65
2022/11/10 05:46:59;;;;;;;79.05;50.85;;;13.50;99.90;;;;;;5032061;28;20033;-65
2022/11/10 05:49:26;;;;;;;72.72;48.72;;;13.60;99.90;;;;;;5021393;28;20479;-65
2022/11/10 05:51:51;;;;;;;74.05;47.67;;;13.40;99.90;;;;;;5031675;28;20021;-65
2022/11/10 05:54:17;;;;;;;82.85;52.88;;;13.50;99.90;;;;;;5032321;28;20028;-65
2022/11/10 05:56:43;;;;;;;71.18;49.17;;;13.60;99.90;;;;;;5032932;28;20472;-65
2022/11/10 05:59:08;;;;;;;75.22;50.10;;;13.60;99.90;;;;;;5028227;28;20463;-65
2022/11/10 06:01:34;;;;;;;75.68;51.45;;;13.50;99.90;;;;;;5031100;28;20026;-65
2022/11/10 06:03:59;;;;;;;82.10;51.78;;;13.30;99.90;;;;;;5032916;28;20017;-65
2022/11/10 06:06:25;;;;;;;77.65;50.33;;;13.60;99.90;;;;;;5031557;28;20026;-65
2022/11/10 06:08:50;;;;;;;81.68;52.58;;;13.50;99.90;;;;;;5032772;28;20034;-65
2022/11/10 06:11:16;;;;;;;78.75;51.15;;;13.60;99.90;;;;;;5027237;28;20386;-64
2022/11/10 06:13:42;;;;;;;66.78;47.33;;;13.30;99.90;;;;;;5027190;28;20055;-64
2022/11/10 06:16:07;;;;;;;74.65;48.97;;;13.50;99.90;;;;;;5030138;28;20022;-65
2022/11/10 06:18:33;;;;;;;71.88;48.72;;;13.50;99.90;;;;;;5031221;28;20501;-65
2022/11/10 06:20:58;;;;;;;82.30;53.65;;;13.60;99.90;;;;;;5030151;28;20101;-65
2022/11/10 06:23:24;;;;;;;82.75;51.78;;;13.60;99.90;;;;;;5031954;28;20029;-69
2022/11/10 06:25:50;;;;;;;87.32;55.20;;;13.60;99.90;;;;;;5032696;28;20069;-68
2022/11/10 06:28:16;;;;;;;83.43;52.55;;;13.70;99.90;;;;;;5032920;28;20079;-68
2022/11/10 06:30:41;;;;;;;78.95;51.90;;;13.70;99.90;;;;;;5032619;28;20348;-68
2022/11/10 06:33:08;;;;;;;78.70;51.47;;;13.60;99.90;;;;;;5031556;28;20037;-68
2022/11/10 06:35:33;;;;;;;77.53;52.63;;;13.60;99.90;;;;;;5032639;28;20029;-68
2022/11/10 06:38:04;;;;;;;86.63;54.35;;;13.70;99.90;;;;;;5032821;28;20021;-68
2022/11/10 06:40:31;;;;;;;76.75;47.00;;;13.70;99.90;;;;;;5032781;28;20557;-69
2022/11/10 06:42:57;;;;;;;74.47;49.15;;;13.60;99.90;;;;;;5030665;28;20471;-68
2022/11/10 06:45:23;;;;;;;71.10;47.75;;;13.50;99.90;;;;;;5034410;28;20080;-68
2022/11/10 06:48:02;;;;;;;62.28;43.00;;;13.60;99.90;;;;;;5032504;28;20053;-68
2022/11/10 06:50:28;;;;;;;68.25;44.92;;;13.50;99.90;;;;;;5044605;28;20092;-68
2022/11/10 06:52:58;;;;;;;61.42;41.10;;;13.60;99.90;;;;;;5039673;28;20372;-68
2022/11/10 06:55:24;;;;;;;63.88;44.53;;;13.50;99.90;;;;;;5043099;28;20013;-68
2022/11/10 06:57:50;;;;;;;74.13;46.30;;;13.60;99.90;;;;;;5041648;28;20040;-68
2022/11/10 07:00:16;;;;;;;73.10;46.92;;;13.60;99.90;;;;;;5034352;28;20017;-68
2022/11/10 07:02:41;;;;;;;72.28;46.97;;;13.60;99.90;;;;;;5036729;28;20025;-68
2022/11/10 07:05:07;;;;;;;68.65;46.20;;;13.70;99.90;;;;;;5032661;28;20024;-68
2022/11/10 07:07:33;;;;;;;66.32;45.03;;;13.70;99.90;;;;;;5037333;28;20056;-68
2022/11/10 07:09:59;;;;;;;70.40;47.15;;;13.70;99.90;;;;;;5038638;28;20051;-68
2022/11/10 07:12:24;;;;;;;64.50;44.58;;;13.70;99.90;;;;;;5043170;28;20075;-68
2022/11/10 07:14:50;;;;;;;68.38;45.47;;;13.80;99.90;;;;;;5030503;28;20029;-68
2022/11/10 07:17:15;;;;;;;65.95;45.92;;;13.80;99.90;;;;;;5044199;28;20036;-68
2022/11/10 07:19:41;;;;;;;73.38;50.10;;;13.80;99.90;;;;;;5040615;28;20061;-68
2022/11/10 07:22:07;;;;;;;68.70;43.08;;;13.90;99.90;;;;;;5031902;28;20036;-68
2022/11/10 07:24:33;;;;;;;63.85;42.03;;;13.90;99.90;;;;;;5031945;28;20029;-68
2022/11/10 07:26:58;;;;;;;66.13;44.63;;;13.80;99.90;;;;;;5031978;28;20062;-67
2022/11/10 07:29:25;;;;;;;64.10;42.40;;;13.90;99.90;;;;;;5031980;28;20498;-68
2022/11/10 07:31:51;;;;;;;64.80;43.95;;;13.30;99.90;;;;;;5026348;28;20037;-67
2022/11/10 07:34:17;;;;;;;54.50;40.63;;;13.20;99.90;;;;;;5032021;28;20028;-68
2022/11/10 07:36:43;;;;;;;60.33;41.10;;;13.00;99.90;;;;;;5032134;28;20025;-68
2022/11/10 07:39:10;;;;;;;59.72;41.53;;;12.60;99.90;;;;;;5032043;28;20028;-67
2022/11/10 07:41:35;;;;;;;67.25;45.22;;;12.60;99.90;;;;;;5031577;28;20438;-67
2022/11/10 07:44:01;;;;;;;68.85;46.72;;;13.30;99.90;;;;;;5028977;28;20022;-68
2022/11/10 07:46:27;;;;;;;95.60;46.30;;;13.70;99.90;;;;;;5031772;28;20379;-67
2022/11/10 07:48:53;;;;;;;84.53;47.72;;;13.90;99.90;;;;;;5031568;28;20100;-67
2022/11/10 07:51:19;;;;;;;74.03;47.10;;;14.00;99.90;;;;;;5031691;28;20014;-67
2022/11/10 07:53:44;;;;;;;74.07;49.13;;;14.00;99.90;;;;;;5028534;28;20111;-67
2022/11/10 07:56:10;;;;;;;78.13;47.72;;;14.00;99.90;;;;;;5029682;28;20025;-67
2022/11/10 07:58:35;;;;;;;68.63;47.10;;;14.10;99.90;;;;;;5031577;28;20534;-67
2022/11/10 08:01:01;;;;;;;87.85;45.53;;;14.10;99.90;;;;;;5031657;28;20076;-67
2022/11/10 08:03:27;;;;;;;76.32;46.08;;;14.20;99.90;;;;;;5031710;28;20021;-67
2022/11/10 08:05:52;;;;;;;78.63;47.38;;;14.20;99.90;;;;;;5035986;28;20383;-67
2022/11/10 08:08:18;;;;;;;75.30;45.10;;;14.30;99.90;;;;;;5032682;28;20033;-67
2022/11/10 08:10:44;;;;;;;70.13;45.28;;;14.20;99.90;;;;;;5023559;28;20026;-67
2022/11/10 08:13:12;;;;;;;74.40;46.88;;;14.20;99.90;;;;;;5033732;28;20048;-67
2022/11/10 08:15:39;;;;;;;64.03;43.60;;;14.20;99.90;;;;;;5036038;28;20427;-67
2022/11/10 08:18:07;;;;;;;72.00;45.45;;;14.20;99.90;;;;;;5078491;28;20496;-67
2022/11/10 08:20:33;;;;;;;68.80;42.72;;;14.30;99.90;;;;;;5040752;28;20021;-67
2022/11/10 08:23:05;;;;;;;59.05;42.67;;;14.10;91.20;;;;;;5035620;28;20025;-67
2022/11/10 08:25:33;;;;;;;68.32;46.53;;;14.10;53.40;;;;;;5041390;28;20045;-67
2022/11/10 08:28:00;;;;;;;64.32;43.83;;;14.20;41.90;;;;;;5032894;28;20041;-67
2022/11/10 08:30:28;;;;;;;61.10;43.17;;;14.10;28.50;;;;;;5034036;28;20032;-67
2022/11/10 08:32:55;;;;;;;64.38;45.80;;;14.30;20.00;;;;;;5033000;28;20083;-66
2022/11/10 08:35:23;;;;;;;77.57;50.08;;;14.30;15.70;;;;;;5033835;28;20033;-67
2022/11/10 08:37:48;;;;;;;69.72;45.15;;;14.40;12.90;;;;;;5034274;28;20483;-66
2022/11/10 08:40:14;;;;;;;70.55;45.83;;;14.40;10.80;;;;;;5034543;28;20049;-66
2022/11/10 08:42:40;;;;;;;66.78;43.60;;;14.40;10.00;;;;;;5034070;28;20033;-66
2022/11/10 08:45:06;;;;;;;73.82;46.55;;;14.40;9.00;;;;;;5034662;28;20018;-66
2022/11/10 08:47:31;;;;;;;63.45;44.47;;;14.40;8.60;;;;;;5033844;28;20054;-66
2022/11/10 08:49:57;;;;;;;67.35;44.42;;;14.50;6.10;;;;;;5034096;28;20047;-68
2022/11/10 08:52:22;;;;;;;71.75;47.10;;;14.50;5.60;;;;;;5034215;28;20018;-67
2022/11/10 08:54:48;;;;;;;70.88;45.63;;;14.60;7.30;;;;;;5033673;28;20479;-67
2022/11/10 08:57:14;;;;;;;77.75;49.42;;;14.60;6.70;;;;;;5026794;28;20027;-67
2022/11/10 08:59:39;;;;;;;77.72;48.88;;;14.60;6.70;;;;;;5028034;28;20427;-67
2022/11/10 09:02:06;;;;;;;69.75;46.22;;;14.60;6.60;;;;;;5033957;28;20110;-67
2022/11/10 09:04:35;;;;;;;73.90;46.78;;;14.70;6.20;;;;;;5034274;28;20033;-67
2022/11/10 09:07:01;;;;;;;67.35;45.45;;;14.70;6.50;;;;;;5033809;28;20029;-67
2022/11/10 09:09:26;;;;;;;65.07;45.08;;;14.80;5.80;;;;;;5032211;28;20162;-67
2022/11/10 09:11:52;;;;;;;69.47;46.13;;;14.70;5.60;;;;;;5033857;28;20025;-66
2022/11/10 09:14:18;;;;;;;71.07;44.28;;;14.70;5.70;;;;;;5033776;28;20048;-66
2022/11/10 09:16:43;;;;;;;65.03;45.80;;;14.70;5.70;;;;;;5033590;28;20100;-66
2022/11/10 09:19:09;;;;;;;64.90;44.67;;;14.70;5.60;;;;;;5046697;28;20052;-66
2022/11/10 09:21:35;;;;;;;64.68;45.22;;;14.70;5.10;;;;;;5033301;28;20730;-66
2022/11/10 09:24:00;;;;;;;65.65;45.08;;;14.70;5.00;;;;;;5033223;28;20025;-66
2022/11/10 09:26:26;;;;;;;63.35;44.63;;;14.80;4.50;;;;;;5033295;28;20037;-66
2022/11/10 09:28:51;;;;;;;61.50;44.30;;;14.70;4.10;;;;;;5035802;28;20433;-66
2022/11/10 09:31:17;;;;;;;61.28;43.15;;;14.80;3.70;;;;;;5044912;28;20022;-66
2022/11/10 09:33:43;;;;;;;60.67;42.80;;;14.80;3.70;;;;;;5033245;28;20436;-66
2022/11/10 09:36:08;;;;;;;62.50;45.38;;;14.80;3.40;;;;;;5033578;28;20025;-67
2022/11/10 09:38:34;;;;;;;66.03;45.95;;;14.70;3.20;;;;;;5034636;28;20112;-66
2022/11/10 09:41:09;;;;;;;60.58;43.50;;;14.90;2.90;;;;;;5044300;28;20036;-66
2022/11/10 09:44:12;;;;;;;64.57;45.08;;;14.90;2.80;;;;;;5034045;28;20082;-66
2022/11/10 09:46:46;;;;;;;61.58;43.78;;;15.00;3.20;;;;;;5033709;28;20026;-66
2022/11/10 09:49:36;;;;;;;58.42;41.53;;;15.00;2.40;;;;;;5033651;28;20037;-66
2022/11/10 09:52:02;;;;;;;67.38;45.15;;;15.00;2.40;;;;;;5032405;28;20029;-66
2022/11/10 09:54:38;;;;;;;62.78;43.90;;;15.00;2.20;;;;;;5032335;28;20032;-67
2022/11/10 09:57:06;;;;;;;65.38;42.70;;;15.00;2.30;;;;;;5033736;28;20029;-66
2022/11/10 09:59:33;;;;;;;63.15;44.75;;;14.90;2.00;;;;;;5031984;28;20117;-66
2022/11/10 10:02:09;;;;;;;66.72;43.08;;;15.00;2.00;;;;;;5033484;28;20440;-66
2022/11/10 10:05:12;;;;;;;61.40;43.30;;;15.00;1.90;;;;;;5033331;28;20018;-66
2022/11/10 10:07:50;;;;;;;58.45;43.70;;;15.00;1.40;;;;;;5022961;28;20033;-66
2022/11/10 10:10:27;;;;;;;59.85;43.58;;;15.00;1.00;;;;;;5033368;28;20072;-66
2022/11/10 10:13:24;;;;;;;66.45;46.00;;;15.10;1.10;;;;;;5033209;28;20506;-66
2022/11/10 10:16:13;;;;;;;60.97;43.80;;;15.20;2.60;;;;;;5023740;28;20033;-66
2022/11/10 10:19:00;;;;;;;63.50;44.30;;;15.20;1.40;;;;;;5033218;28;20820;-66
2022/11/10 10:21:31;;;;;;;60.38;42.97;;;15.20;1.00;;;;;;5033226;28;20534;-66
2022/11/10 10:24:00;;;;;;;58.42;42.92;;;15.20;1.20;;;;;;5031734;28;20087;-66
2022/11/10 10:26:32;;;;;;;63.30;45.05;;;15.20;1.00;;;;;;5032942;28;20155;-66
2022/11/10 10:29:14;;;;;;;63.50;43.72;;;15.40;1.00;;;;;;5032276;28;20037;-66
2022/11/10 10:31:42;;;;;;;55.38;41.63;;;15.30;1.00;;;;;;5033066;28;20036;-66
2022/11/10 10:34:15;;;;;;;58.60;44.10;;;15.40;1.00;;;;;;5033228;28;20021;-66
2022/11/10 10:36:41;;;;;;;60.63;44.45;;;15.40;1.00;;;;;;5032774;28;20541;-67
2022/11/10 10:39:29;;;;;;;58.50;41.25;;;15.50;1.00;;;;;;5032819;28;20025;-67
2022/11/10 10:41:55;;;;;;;61.42;40.20;;;15.50;1.00;;;;;;5032839;28;20475;-66
2022/11/10 10:44:20;;;;;;;56.08;41.95;;;15.40;1.00;;;;;;5032924;28;20393;-67
2022/11/10 10:46:46;;;;;;;58.50;44.15;;;15.50;1.00;;;;;;5031534;28;20120;-66
2022/11/10 10:49:18;;;;;;;56.85;43.50;;;15.70;1.00;;;;;;5031254;28;20037;-66
2022/11/10 10:51:44;;;;;;;50.95;39.80;;;15.70;1.00;;;;;;5030881;28;20018;-66
2022/11/10 10:54:39;;;;;;;58.45;41.83;;;15.60;1.00;;;;;;5027991;28;20377;-67
2022/11/10 10:57:21;;;;;;;59.47;42.17;;;15.50;1.00;;;;;;5031701;28;20044;-66
2022/11/10 10:59:47;;;;;;;57.28;40.95;;;15.70;1.00;;;;;;5032253;28;20098;-66
2022/11/10 11:02:25;;;;;;;52.75;39.42;;;15.80;1.00;;;;;;5032766;28;20374;-67
2022/11/10 11:05:11;;;;;;;54.70;39.92;;;15.70;1.00;;;;;;5032370;28;20029;-66
2022/11/10 11:07:37;;;;;;;52.17;39.55;;;15.80;1.00;;;;;;5023972;28;20041;-66
2022/11/10 11:10:20;;;;;;;54.28;39.15;;;15.90;1.00;;;;;;5021778;28;20436;-66
2022/11/10 11:12:46;;;;;;;52.88;41.17;;;16.00;1.00;;;;;;5032226;28;20080;-66
2022/11/10 11:15:28;;;;;;;45.33;36.13;;;15.90;1.00;;;;;;5032191;28;20411;-66
2022/11/10 11:18:14;;;;;;;57.13;40.20;;;15.90;1.00;;;;;;5022953;28;20032;-66
2022/11/10 11:21:06;;;;;;;57.15;39.78;;;16.00;1.00;;;;;;5032192;28;20047;-66
2022/11/10 11:23:52;;;;;;;53.53;40.40;;;16.10;1.00;;;;;;5031575;28;20025;-66
2022/11/10 11:26:36;;;;;;;59.58;42.47;;;16.00;1.00;;;;;;5029718;28;20075;-66
2022/11/10 11:29:35;;;;;;;49.88;38.15;;;16.00;1.00;;;;;;5031994;28;20033;-66
2022/11/10 11:32:30;;;;;;;51.72;37.95;;;16.00;1.00;;;;;;5026198;28;20030;-66
2022/11/10 11:34:58;;;;;;;50.42;37.92;;;16.10;1.00;;;;;;5032434;28;20033;-66
2022/11/10 11:37:33;;;;;;;52.63;41.30;;;16.30;1.00;;;;;;5031732;28;20022;-66
2022/11/10 11:40:42;;;;;;;55.50;41.55;;;16.40;1.00;;;;;;5031555;28;20048;-66
2022/11/10 11:43:32;;;;;;;54.13;41.95;;;16.40;1.00;;;;;;5002202;28;20418;-66
2022/11/10 11:46:36;;;;;;;56.13;42.75;;;16.40;1.00;;;;;;5031787;28;20160;-66
2022/11/10 11:49:39;;;;;;;50.22;40.08;;;16.50;1.00;;;;;;5027939;28;20057;-66
2022/11/10 11:52:10;;;;;;;50.65;39.38;;;16.50;1.00;;;;;;5031878;28;20103;-66
2022/11/10 11:54:39;;;;;;;56.55;41.33;;;16.40;1.00;;;;;;5031449;28;20037;-66
2022/11/10 11:57:26;;;;;;;59.42;43.97;;;16.40;1.00;;;;;;5031539;28;20029;-66
2022/11/10 12:00:00;;;;;;;57.25;41.72;;;16.50;1.00;;;;;;5031716;28;20033;-66
2022/11/10 12:03:03;;;;;;;62.10;43.10;;;16.30;1.00;;;;;;5031576;28;20035;-66
2022/11/10 12:06:06;;;;;;;56.90;44.20;;;16.30;1.00;;;;;;5022070;28;20057;-66
2022/11/10 12:08:58;;;;;;;56.67;41.95;;;16.40;1.00;;;;;;5027054;28;20041;-65
2022/11/10 12:11:43;;;;;;;50.72;39.13;;;16.30;1.00;;;;;;5028964;28;20025;-66
2022/11/10 12:14:35;;;;;;;55.67;39.33;;;16.10;1.00;;;;;;5031270;28;20041;-66
2022/11/10 12:17:15;;;;;;;53.05;40.97;;;16.10;1.00;;;;;;5032790;28;20041;-66
2022/11/10 12:19:50;;;;;;;55.67;40.83;;;16.20;1.00;;;;;;5040017;28;20203;-66
2022/11/10 12:22:28;;;;;;;51.00;41.45;;;16.20;1.00;;;;;;5031200;28;20075;-65
2022/11/10 12:25:28;;;;;;;49.47;39.28;;;16.20;1.00;;;;;;5031467;28;20021;-66
2022/11/10 12:28:19;;;;;;;49.88;38.70;;;16.30;1.00;;;;;;5031284;28;20491;-66
2022/11/10 12:30:50;;;;;;;47.40;39.20;;;16.20;1.00;;;;;;5031191;28;20470;-66
2022/11/10 12:33:38;;;;;;;51.17;40.33;;;16.30;1.00;;;;;;5031414;28;20068;-66
2022/11/10 12:36:10;;;;;;;53.10;39.63;;;16.20;1.00;;;;;;5031359;28;20017;-66
2022/11/10 12:38:54;;;;;;;56.05;41.15;;;16.30;1.00;;;;;;5031520;28;20112;-66
2022/11/10 12:41:20;;;;;;;50.53;39.30;;;16.40;1.00;;;;;;5027409;28;20128;-66
2022/11/10 12:44:13;;;;;;;53.80;40.33;;;16.30;1.00;;;;;;5029360;28;20026;-63
2022/11/10 12:46:42;;;;;;;45.90;39.13;;;15.90;1.00;;;;;;5020706;28;20020;-63
2022/11/10 12:49:35;;;;;;;53.50;41.05;;;15.80;1.00;;;;;;5030816;28;20044;-64
2022/11/10 12:52:23;;;;;;;52.05;42.47;;;15.90;1.00;;;;;;5029250;28;20551;-64
2022/11/10 12:54:49;;;;;;;71.38;53.38;;;16.10;1.00;;;;;;5018675;28;20045;-64
2022/11/10 12:57:20;;;;;;;65.05;47.63;;;16.50;1.00;;;;;;5031905;28;20134;-63
2022/11/10 12:59:49;;;;;;;65.93;46.97;;;16.50;1.00;;;;;;5033509;28;20025;-64
2022/11/10 13:02:14;;;;;;;76.15;49.20;;;16.60;1.00;;;;;;5033506;28;20036;-64
2022/11/10 13:04:40;;;;;;;54.00;41.47;;;16.60;1.00;;;;;;5033722;28;20052;-64